Time;durP1;ratioP1;P1;durP2;ratioP2;P2;SDS_P1;SDS_P2;PMS_P1;PMS_P2;Temp;Humidity;BMP_temperature;BMP_pressure;BME280_temperature;BME280_humidity;BME280_pressure;Samples;Min_cycle;Max_cycle;Signal;HPM_P1;HPM_P2
2021/12/09 00:01:26;;;;;;;26.98;11.30;;;1.50;99.90;;;;;;6189157;23;20052;-83
2021/12/09 00:04:06;;;;;;;24.90;11.23;;;1.50;99.90;;;;;;6191644;23;20024;-84
2021/12/09 00:06:32;;;;;;;21.58;10.23;;;1.50;99.90;;;;;;6188160;23;20021;-83
2021/12/09 00:09:07;;;;;;;21.35;10.48;;;1.60;99.90;;;;;;6163594;23;20493;-84
2021/12/09 00:11:46;;;;;;;23.05;11.20;;;1.60;99.90;;;;;;6188965;23;20024;-83
2021/12/09 00:14:16;;;;;;;27.83;11.50;;;1.50;99.90;;;;;;6163811;23;20063;-84
2021/12/09 00:16:42;;;;;;;22.63;11.98;;;1.60;99.90;;;;;;6188734;23;20020;-83
2021/12/09 00:19:08;;;;;;;23.38;11.13;;;1.60;99.90;;;;;;6189212;23;20084;-83
2021/12/09 00:21:35;;;;;;;23.05;12.13;;;1.60;99.90;;;;;;6188622;23;20028;-84
2021/12/09 00:24:02;;;;;;;25.98;10.85;;;1.60;99.90;;;;;;6164111;23;20021;-83
2021/12/09 00:26:28;;;;;;;28.00;12.48;;;1.60;99.90;;;;;;6188531;23;20079;-83
2021/12/09 00:29:16;;;;;;;27.52;11.68;;;1.60;99.90;;;;;;6215485;23;20483;-83
2021/12/09 00:31:42;;;;;;;24.83;12.65;;;1.60;99.90;;;;;;6188737;23;20025;-83
2021/12/09 00:34:09;;;;;;;25.08;13.10;;;1.60;99.90;;;;;;6191362;23;20016;-83
2021/12/09 00:36:40;;;;;;;27.00;12.13;;;1.60;99.90;;;;;;6193171;23;20024;-84
2021/12/09 00:39:09;;;;;;;24.88;11.75;;;1.60;99.90;;;;;;6189410;23;20087;-84
2021/12/09 00:41:38;;;;;;;30.05;13.80;;;1.50;99.90;;;;;;6188891;23;20027;-84
2021/12/09 00:44:10;;;;;;;25.40;12.43;;;1.60;99.90;;;;;;6188733;23;20106;-84
2021/12/09 00:46:38;;;;;;;25.80;13.63;;;1.50;99.90;;;;;;6188680;23;20035;-84
2021/12/09 00:49:04;;;;;;;26.27;12.77;;;1.50;99.90;;;;;;6188728;23;20020;-84
2021/12/09 00:51:36;;;;;;;24.83;11.65;;;1.50;99.90;;;;;;6188243;23;20456;-82
2021/12/09 00:54:03;;;;;;;22.33;12.20;;;1.40;99.90;;;;;;6163877;23;20024;-83
2021/12/09 00:56:29;;;;;;;23.90;12.60;;;1.40;99.90;;;;;;6163704;23;20522;-84
2021/12/09 00:58:55;;;;;;;23.83;12.80;;;1.40;99.90;;;;;;6188955;23;20050;-84
2021/12/09 01:01:24;;;;;;;29.80;13.65;;;1.30;99.90;;;;;;6163853;23;20020;-81
2021/12/09 01:03:51;;;;;;;27.75;12.38;;;1.30;99.90;;;;;;6189811;23;20103;-82
2021/12/09 01:06:21;;;;;;;28.90;13.15;;;1.30;99.90;;;;;;6189069;23;20095;-82
2021/12/09 01:08:47;;;;;;;28.55;13.45;;;1.30;99.90;;;;;;6188770;23;20024;-82
2021/12/09 01:11:14;;;;;;;27.10;13.70;;;1.30;99.90;;;;;;6164457;23;20519;-82
2021/12/09 01:13:41;;;;;;;27.77;13.40;;;1.20;99.90;;;;;;6192153;23;20024;-82
2021/12/09 01:16:09;;;;;;;31.92;13.70;;;1.20;99.90;;;;;;6189307;23;20021;-82
2021/12/09 01:18:37;;;;;;;28.10;14.60;;;1.20;99.90;;;;;;6188700;23;20441;-82
2021/12/09 01:21:05;;;;;;;32.60;15.02;;;1.30;99.90;;;;;;6163711;23;20337;-82
2021/12/09 01:23:31;;;;;;;26.80;14.05;;;1.20;99.90;;;;;;6163537;23;20028;-81
2021/12/09 01:26:02;;;;;;;25.73;14.30;;;1.20;99.90;;;;;;6188245;23;20055;-82
2021/12/09 01:28:34;;;;;;;31.00;15.35;;;1.20;99.90;;;;;;6188694;23;20028;-82
2021/12/09 01:31:06;;;;;;;25.30;13.35;;;1.20;99.90;;;;;;6187780;23;20013;-82
2021/12/09 01:33:41;;;;;;;29.25;13.63;;;1.20;99.90;;;;;;6165573;23;20329;-82
2021/12/09 01:36:10;;;;;;;31.58;14.95;;;1.20;99.90;;;;;;6163022;23;20040;-82
2021/12/09 01:38:36;;;;;;;36.78;15.88;;;1.20;99.90;;;;;;6162856;23;20448;-82
2021/12/09 01:41:02;;;;;;;31.00;14.57;;;1.10;99.90;;;;;;6188529;23;20027;-83
2021/12/09 01:43:28;;;;;;;30.08;14.02;;;1.10;99.90;;;;;;6138865;23;20103;-82
2021/12/09 01:46:06;;;;;;;35.80;17.20;;;1.10;99.90;;;;;;6188268;23;20025;-81
2021/12/09 01:48:32;;;;;;;30.70;15.60;;;1.10;99.90;;;;;;6182904;23;20464;-82
2021/12/09 01:50:58;;;;;;;33.55;15.65;;;1.10;99.90;;;;;;6169309;23;20025;-83
2021/12/09 01:53:25;;;;;;;36.40;18.08;;;1.10;99.90;;;;;;6217640;23;20074;-82
2021/12/09 01:55:51;;;;;;;27.65;15.02;;;1.10;99.90;;;;;;6212085;23;20128;-82
2021/12/09 01:58:17;;;;;;;34.53;15.35;;;1.10;99.90;;;;;;6163028;23;20020;-82
2021/12/09 02:00:43;;;;;;;34.55;16.05;;;1.00;99.90;;;;;;6187741;23;20026;-82
2021/12/09 02:03:09;;;;;;;33.28;15.25;;;1.10;99.90;;;;;;6187283;23;20098;-82
2021/12/09 02:05:40;;;;;;;32.50;16.75;;;1.10;99.90;;;;;;6187744;23;20055;-81
2021/12/09 02:08:14;;;;;;;30.55;16.27;;;1.10;99.90;;;;;;6187659;23;20099;-82
2021/12/09 02:10:41;;;;;;;31.15;16.63;;;1.00;99.90;;;;;;6163254;23;20048;-82
2021/12/09 02:13:07;;;;;;;34.13;15.98;;;1.00;99.90;;;;;;6213536;23;20348;-81
2021/12/09 02:15:34;;;;;;;32.40;16.42;;;1.00;99.90;;;;;;6188703;23;20028;-82
2021/12/09 02:18:04;;;;;;;31.17;16.90;;;1.00;99.90;;;;;;6188061;23;20020;-82
2021/12/09 02:20:34;;;;;;;41.30;18.70;;;1.00;99.90;;;;;;6187675;23;20028;-81
2021/12/09 02:23:00;;;;;;;32.78;17.50;;;1.00;99.90;;;;;;6162552;23;20023;-81
2021/12/09 02:25:36;;;;;;;38.70;18.65;;;1.00;99.90;;;;;;6187842;23;20024;-81
2021/12/09 02:28:14;;;;;;;42.88;19.02;;;1.10;99.90;;;;;;6214596;23;20020;-81
2021/12/09 02:30:46;;;;;;;35.95;19.85;;;1.10;99.90;;;;;;6187593;23;20020;-81
2021/12/09 02:33:13;;;;;;;39.22;19.95;;;1.10;99.90;;;;;;6163292;23;20024;-81
2021/12/09 02:35:44;;;;;;;39.05;20.25;;;1.10;99.90;;;;;;6191268;23;20078;-81
2021/12/09 02:38:10;;;;;;;37.50;21.52;;;1.10;99.90;;;;;;6167746;23;20021;-82
2021/12/09 02:40:42;;;;;;;45.55;20.73;;;1.10;99.90;;;;;;6188440;23;20167;-81
2021/12/09 02:43:11;;;;;;;34.95;19.90;;;1.10;99.90;;;;;;6187881;23;20464;-81
2021/12/09 02:45:38;;;;;;;37.35;18.75;;;1.10;99.90;;;;;;6184920;23;20028;-81
2021/12/09 02:48:05;;;;;;;43.00;19.95;;;1.10;99.90;;;;;;6187349;23;20396;-81
2021/12/09 02:50:30;;;;;;;35.60;20.13;;;1.10;99.90;;;;;;6187992;23;20056;-81
2021/12/09 02:53:02;;;;;;;39.95;20.92;;;1.10;99.90;;;;;;6214742;23;20433;-82
2021/12/09 02:55:34;;;;;;;38.65;19.48;;;1.00;99.90;;;;;;6187949;23;20028;-81
2021/12/09 02:58:02;;;;;;;39.90;19.45;;;1.00;99.90;;;;;;6162654;23;20096;-81
2021/12/09 03:00:29;;;;;;;38.17;21.23;;;1.00;99.90;;;;;;6162280;23;20021;-81
2021/12/09 03:02:57;;;;;;;37.55;19.58;;;1.00;99.90;;;;;;6187703;23;20087;-81
2021/12/09 03:05:32;;;;;;;42.10;20.50;;;1.00;99.90;;;;;;6187701;23;20052;-81
2021/12/09 03:07:58;;;;;;;40.67;19.98;;;1.00;99.90;;;;;;6184614;23;20106;-82
2021/12/09 03:10:26;;;;;;;46.47;21.33;;;0.90;99.90;;;;;;6187953;23;20100;-81
2021/12/09 03:12:59;;;;;;;42.50;20.70;;;0.90;99.90;;;;;;6187624;23;20104;-82
2021/12/09 03:15:25;;;;;;;39.80;21.05;;;0.90;99.90;;;;;;6187981;23;20100;-81
2021/12/09 03:17:51;;;;;;;39.35;21.10;;;0.90;99.90;;;;;;6166272;23;20024;-81
2021/12/09 03:20:20;;;;;;;35.33;19.67;;;0.90;99.90;;;;;;6197091;23;20021;-82
2021/12/09 03:22:48;;;;;;;47.97;22.70;;;0.90;99.90;;;;;;6193778;23;20526;-83
2021/12/09 03:25:17;;;;;;;38.97;21.05;;;0.90;99.90;;;;;;6187561;23;20384;-82
2021/12/09 03:27:43;;;;;;;39.00;20.10;;;0.90;99.90;;;;;;6162544;23;20024;-82
2021/12/09 03:30:12;;;;;;;45.15;22.30;;;0.90;99.90;;;;;;6187427;23;20530;-83
2021/12/09 03:32:38;;;;;;;49.17;22.20;;;0.90;99.90;;;;;;6163209;23;20029;-81
2021/12/09 03:35:09;;;;;;;41.63;22.70;;;0.90;99.90;;;;;;6188581;23;20658;-82
2021/12/09 03:37:35;;;;;;;43.33;22.70;;;0.80;99.90;;;;;;6186189;23;20017;-82
2021/12/09 03:40:01;;;;;;;48.70;24.13;;;0.80;99.90;;;;;;6187511;23;20021;-82
2021/12/09 03:42:30;;;;;;;42.08;20.23;;;0.90;99.90;;;;;;6188378;23;20616;-82
2021/12/09 03:44:57;;;;;;;38.22;21.73;;;0.80;99.90;;;;;;6189299;23;20028;-82
2021/12/09 03:47:26;;;;;;;48.97;22.92;;;0.80;99.90;;;;;;6214316;23;20029;-82
2021/12/09 03:49:52;;;;;;;44.53;21.92;;;0.90;99.90;;;;;;6164137;23;20021;-82
2021/12/09 03:52:28;;;;;;;42.35;22.70;;;0.80;99.90;;;;;;6216242;23;20117;-83
2021/12/09 03:54:55;;;;;;;47.10;23.77;;;0.90;99.90;;;;;;6164222;23;20457;-81
2021/12/09 03:57:21;;;;;;;48.05;23.52;;;0.90;99.90;;;;;;6188787;23;20056;-81
2021/12/09 03:59:47;;;;;;;50.55;23.88;;;0.80;99.90;;;;;;6188756;23;20342;-81
2021/12/09 04:02:13;;;;;;;45.30;23.70;;;0.80;99.90;;;;;;6192319;23;20024;-83
2021/12/09 04:04:40;;;;;;;47.58;22.63;;;0.80;99.90;;;;;;6193355;23;20099;-83
2021/12/09 04:07:14;;;;;;;45.10;21.92;;;0.80;99.90;;;;;;6192309;23;20020;-81
2021/12/09 04:09:42;;;;;;;46.25;23.05;;;0.80;99.90;;;;;;6189005;23;20021;-81
2021/12/09 04:12:19;;;;;;;47.17;23.25;;;0.80;99.90;;;;;;6215882;23;20032;-81
2021/12/09 04:14:45;;;;;;;50.38;25.27;;;0.80;99.90;;;;;;6188645;23;20083;-81
2021/12/09 04:17:11;;;;;;;44.58;22.73;;;0.80;99.90;;;;;;6188508;23;20028;-81
2021/12/09 04:19:36;;;;;;;45.33;25.05;;;0.80;99.90;;;;;;6188830;23;20056;-80
2021/12/09 04:22:05;;;;;;;52.90;25.23;;;0.80;99.90;;;;;;6186621;23;20020;-80
2021/12/09 04:24:33;;;;;;;49.03;26.42;;;0.80;99.90;;;;;;6188362;23;20051;-81
2021/12/09 04:26:58;;;;;;;48.47;25.73;;;0.80;99.90;;;;;;6188236;23;20029;-81
2021/12/09 04:29:30;;;;;;;51.00;24.10;;;0.80;99.90;;;;;;6187604;23;20351;-82
2021/12/09 04:31:56;;;;;;;52.92;24.30;;;0.80;99.90;;;;;;6188701;23;20039;-82
2021/12/09 04:34:22;;;;;;;52.25;24.80;;;0.80;99.90;;;;;;6188291;23;20452;-81
2021/12/09 04:36:48;;;;;;;55.42;25.23;;;0.80;99.90;;;;;;6213696;23;20379;-81
2021/12/09 04:39:14;;;;;;;51.67;24.30;;;0.80;99.90;;;;;;6163529;23;20021;-81
2021/12/09 04:41:41;;;;;;;42.22;22.63;;;0.90;99.90;;;;;;6189873;23;20024;-81
2021/12/09 04:44:13;;;;;;;46.97;24.35;;;0.80;99.90;;;;;;6188984;23;20024;-81
2021/12/09 04:46:39;;;;;;;51.97;25.92;;;0.90;99.90;;;;;;6188370;23;20118;-81
2021/12/09 04:49:07;;;;;;;57.35;25.23;;;0.90;99.90;;;;;;6188647;23;20020;-81
2021/12/09 04:51:34;;;;;;;49.63;26.35;;;0.80;99.90;;;;;;6188327;23;20099;-82
2021/12/09 04:54:01;;;;;;;52.67;26.05;;;0.90;99.90;;;;;;6187284;23;20044;-81
2021/12/09 04:56:27;;;;;;;45.83;24.02;;;0.80;99.90;;;;;;6213998;23;20534;-82
2021/12/09 04:58:52;;;;;;;56.45;25.58;;;0.90;99.90;;;;;;6192289;23;20029;-82
2021/12/09 05:01:19;;;;;;;50.53;26.73;;;0.80;99.90;;;;;;6219762;23;20016;-81
2021/12/09 05:03:47;;;;;;;51.10;25.83;;;0.80;99.90;;;;;;6192004;23;20025;-81
2021/12/09 05:06:15;;;;;;;50.97;25.20;;;0.90;99.90;;;;;;6188370;23;20470;-82
2021/12/09 05:08:45;;;;;;;49.00;23.58;;;0.90;99.90;;;;;;6187798;23;20024;-82
2021/12/09 05:11:48;;;;;;;49.05;23.00;;;0.90;99.90;;;;;;6187099;23;20024;-82
2021/12/09 05:13:59;;;;;;;48.13;23.83;;;0.80;99.90;;;;;;6187760;23;20024;-82
2021/12/09 05:16:28;;;;;;;46.53;23.83;;;0.80;99.90;;;;;;6188755;23;20024;-82
2021/12/09 05:18:58;;;;;;;47.92;23.73;;;0.80;99.90;;;;;;6187682;23;20021;-82
2021/12/09 05:21:37;;;;;;;49.13;24.98;;;0.80;99.90;;;;;;6165107;23;20029;-82
2021/12/09 05:24:08;;;;;;;47.85;24.33;;;0.80;99.90;;;;;;6160388;23;20028;-82
2021/12/09 05:26:48;;;;;;;47.35;25.02;;;0.80;99.90;;;;;;6214909;23;20067;-82
2021/12/09 05:29:15;;;;;;;44.17;24.02;;;0.80;99.90;;;;;;6187371;23;20027;-82
2021/12/09 05:34:26;;;;;;;46.10;24.77;;;0.80;99.90;;;;;;6191134;23;20357;-83
2021/12/09 05:36:52;;;;;;;47.90;23.63;;;0.70;99.90;;;;;;6189869;23;20407;-82
2021/12/09 05:39:18;;;;;;;48.72;23.73;;;0.70;99.90;;;;;;6188620;23;20103;-82
2021/12/09 05:41:45;;;;;;;52.22;23.50;;;0.70;99.90;;;;;;6213141;23;20078;-82
2021/12/09 05:44:13;;;;;;;47.15;22.70;;;0.70;99.90;;;;;;6213447;23;20099;-81
2021/12/09 05:46:43;;;;;;;45.60;23.85;;;0.70;99.90;;;;;;6162687;23;20024;-82
2021/12/09 05:49:10;;;;;;;45.10;24.33;;;0.70;99.90;;;;;;6162911;23;20326;-82
2021/12/09 05:51:43;;;;;;;42.60;24.15;;;0.70;99.90;;;;;;6162856;23;20302;-82
2021/12/09 05:54:09;;;;;;;53.25;25.08;;;0.60;99.90;;;;;;6187526;23;20024;-82
2021/12/09 05:56:36;;;;;;;49.10;23.23;;;0.70;99.90;;;;;;6187428;23;20055;-82
2021/12/09 05:59:03;;;;;;;45.95;24.15;;;0.60;99.90;;;;;;6187063;23;20021;-82
2021/12/09 06:01:29;;;;;;;51.70;24.67;;;0.70;99.90;;;;;;6162625;23;20024;-82
2021/12/09 06:03:55;;;;;;;45.58;23.08;;;0.70;99.90;;;;;;6187497;23;20023;-82
2021/12/09 06:06:22;;;;;;;49.75;24.30;;;0.60;99.90;;;;;;6186776;23;20024;-82
2021/12/09 06:08:48;;;;;;;44.78;23.65;;;0.60;99.90;;;;;;6187224;23;20028;-82
2021/12/09 06:11:14;;;;;;;52.72;23.38;;;0.60;99.90;;;;;;6188101;23;20020;-82
2021/12/09 06:13:40;;;;;;;50.05;24.25;;;0.60;99.90;;;;;;6188421;23;20028;-82
2021/12/09 06:16:07;;;;;;;52.63;24.42;;;0.70;99.90;;;;;;6166022;23;20078;-82
2021/12/09 06:18:42;;;;;;;47.28;24.13;;;0.70;99.90;;;;;;6164251;23;20021;-82
2021/12/09 06:21:08;;;;;;;55.33;24.02;;;0.60;99.90;;;;;;6160616;23;20096;-81
2021/12/09 06:23:34;;;;;;;46.80;23.67;;;0.60;99.90;;;;;;6187327;22;20059;-81
2021/12/09 06:26:00;;;;;;;48.20;23.83;;;0.60;99.90;;;;;;6187278;23;20056;-82
2021/12/09 06:28:26;;;;;;;44.70;23.33;;;0.60;99.90;;;;;;6186640;23;20055;-82
2021/12/09 06:30:51;;;;;;;40.70;23.05;;;0.60;99.90;;;;;;6187614;23;20078;-81
2021/12/09 06:33:26;;;;;;;52.95;23.65;;;0.60;99.90;;;;;;6165520;23;20056;-82
2021/12/09 06:35:52;;;;;;;52.55;24.80;;;0.60;99.90;;;;;;6187089;23;20357;-82
2021/12/09 06:38:18;;;;;;;44.47;23.45;;;0.60;99.90;;;;;;6162607;23;20029;-81
2021/12/09 06:40:45;;;;;;;49.95;24.88;;;0.60;99.90;;;;;;6187772;23;20357;-82
2021/12/09 06:43:11;;;;;;;48.92;24.80;;;0.60;99.90;;;;;;6187289;23;20028;-82
2021/12/09 06:45:38;;;;;;;50.97;24.20;;;0.70;99.90;;;;;;6187454;23;20029;-82
2021/12/09 06:48:04;;;;;;;43.78;24.20;;;0.70;99.90;;;;;;6186815;23;20021;-82
2021/12/09 06:50:31;;;;;;;46.63;23.95;;;0.70;99.90;;;;;;6191800;23;20083;-84
2021/12/09 06:52:57;;;;;;;57.53;27.30;;;0.70;99.90;;;;;;6188971;23;20025;-82
2021/12/09 06:55:23;;;;;;;48.10;24.27;;;0.80;99.90;;;;;;6187338;23;20043;-81
2021/12/09 06:57:50;;;;;;;48.22;24.80;;;0.80;99.90;;;;;;6162727;23;20028;-81
2021/12/09 07:00:20;;;;;;;41.45;24.38;;;0.80;99.90;;;;;;6161625;23;20032;-82
2021/12/09 07:02:49;;;;;;;50.05;23.67;;;0.80;99.90;;;;;;6164303;23;20440;-82
2021/12/09 07:05:23;;;;;;;54.08;22.48;;;0.90;99.90;;;;;;6212333;23;20028;-82
2021/12/09 07:07:50;;;;;;;46.22;22.25;;;0.80;99.90;;;;;;6187547;23;20028;-82
2021/12/09 07:10:18;;;;;;;39.25;22.15;;;0.80;99.90;;;;;;6186767;23;20017;-82
2021/12/09 07:12:53;;;;;;;43.80;22.38;;;0.80;99.90;;;;;;6214681;23;20020;-82
2021/12/09 07:15:20;;;;;;;44.85;22.88;;;0.80;99.90;;;;;;6187313;23;20542;-82
2021/12/09 07:17:47;;;;;;;52.85;21.90;;;0.80;99.90;;;;;;6189442;23;20023;-82
2021/12/09 07:20:17;;;;;;;52.08;24.23;;;0.80;99.90;;;;;;6189716;23;20336;-82
2021/12/09 07:22:46;;;;;;;49.75;21.88;;;0.80;99.90;;;;;;6188859;23;20025;-81
2021/12/09 07:25:12;;;;;;;44.13;21.33;;;0.80;99.90;;;;;;6184291;23;20031;-80
2021/12/09 07:27:38;;;;;;;41.50;21.73;;;0.80;99.90;;;;;;6160182;23;20499;-79
2021/12/09 07:30:11;;;;;;;53.08;22.58;;;0.80;99.90;;;;;;6161946;23;20021;-82
2021/12/09 07:32:37;;;;;;;40.47;19.92;;;0.70;99.90;;;;;;6137575;23;20096;-81
2021/12/09 07:35:05;;;;;;;45.72;22.35;;;0.70;99.90;;;;;;6159999;23;20017;-81
2021/12/09 07:37:32;;;;;;;48.22;21.20;;;0.70;99.90;;;;;;6159356;23;20491;-81
2021/12/09 07:39:57;;;;;;;48.05;20.73;;;0.60;99.90;;;;;;6158938;23;20025;-80
2021/12/09 07:42:25;;;;;;;35.67;20.30;;;0.60;99.90;;;;;;6134130;23;20061;-81
2021/12/09 07:44:51;;;;;;;45.30;22.00;;;0.50;99.90;;;;;;6134335;23;20422;-80
2021/12/09 07:47:17;;;;;;;56.03;23.15;;;0.40;99.90;;;;;;6135052;23;20060;-81
2021/12/09 07:49:44;;;;;;;44.13;21.52;;;0.40;99.90;;;;;;6134664;23;20021;-81
2021/12/09 07:52:10;;;;;;;55.65;23.73;;;0.40;99.90;;;;;;6159131;23;20036;-81
2021/12/09 07:54:42;;;;;;;48.38;21.33;;;0.40;99.90;;;;;;6184765;23;20025;-81
2021/12/09 07:57:08;;;;;;;43.72;23.02;;;0.30;99.90;;;;;;6159093;23;20025;-81
2021/12/09 07:59:43;;;;;;;;;;;0.30;99.90;;;;;;6186320;23;20100;-80
2021/12/09 08:02:09;;;;;;;47.15;20.85;;;0.30;99.90;;;;;;6183061;23;19948;-81
2021/12/09 08:04:36;;;;;;;45.38;22.08;;;0.30;99.90;;;;;;6158790;23;20389;-80
2021/12/09 08:07:02;;;;;;;52.20;24.00;;;0.20;99.90;;;;;;6158583;23;20114;-81
2021/12/09 08:09:29;;;;;;;44.40;22.70;;;0.20;99.90;;;;;;6133960;23;20025;-80
2021/12/09 08:11:56;;;;;;;61.05;24.73;;;0.30;99.90;;;;;;6159329;23;20043;-80
2021/12/09 08:14:23;;;;;;;44.33;23.30;;;0.30;99.90;;;;;;6158991;23;20048;-81
2021/12/09 08:17:08;;;;;;;47.53;23.40;;;0.30;99.90;;;;;;6136207;23;20384;-81
2021/12/09 08:19:35;;;;;;;53.72;24.70;;;0.30;99.90;;;;;;6163690;23;20028;-81
2021/12/09 08:22:00;;;;;;;51.55;24.98;;;0.30;99.90;;;;;;6158687;23;20021;-80
2021/12/09 08:24:26;;;;;;;53.30;23.95;;;0.40;99.90;;;;;;6178456;23;20361;-80
2021/12/09 08:26:57;;;;;;;53.22;24.88;;;0.40;99.90;;;;;;6188429;23;20075;-80
2021/12/09 08:29:29;;;;;;;43.70;21.85;;;0.40;99.90;;;;;;6162894;23;20411;-80
2021/12/09 08:31:55;;;;;;;51.50;23.27;;;0.50;99.90;;;;;;6163912;23;20067;-80
2021/12/09 08:34:21;;;;;;;46.25;22.80;;;0.50;99.90;;;;;;6188719;23;20032;-80
2021/12/09 08:36:48;;;;;;;47.13;23.92;;;0.50;99.90;;;;;;6188705;23;20052;-80
2021/12/09 08:39:14;;;;;;;47.03;22.52;;;0.60;99.90;;;;;;6188051;23;20329;-80
2021/12/09 08:41:40;;;;;;;43.17;22.30;;;0.60;99.90;;;;;;6188564;23;20048;-80
2021/12/09 08:44:07;;;;;;;47.95;24.63;;;0.70;99.90;;;;;;6188238;23;20013;-80
2021/12/09 08:46:38;;;;;;;57.15;25.92;;;0.70;99.90;;;;;;6188555;23;20025;-81
2021/12/09 08:49:14;;;;;;;50.17;23.65;;;0.80;99.90;;;;;;6188425;23;20043;-80
2021/12/09 08:51:40;;;;;;;45.28;24.55;;;0.80;99.90;;;;;;6188483;23;20456;-80
2021/12/09 08:54:06;;;;;;;56.13;23.67;;;0.90;99.90;;;;;;6164342;23;20044;-80
2021/12/09 08:56:32;;;;;;;49.17;23.02;;;0.90;99.90;;;;;;6167373;23;20031;-81
2021/12/09 08:59:03;;;;;;;46.92;21.45;;;1.00;99.90;;;;;;6187979;23;20091;-80
2021/12/09 09:01:29;;;;;;;37.53;21.58;;;1.10;99.90;;;;;;6187962;23;20359;-81
2021/12/09 09:03:54;;;;;;;48.85;24.00;;;1.20;99.90;;;;;;6188150;23;20021;-81
2021/12/09 09:06:20;;;;;;;49.45;22.75;;;1.20;99.90;;;;;;6162610;23;20411;-80
2021/12/09 09:08:50;;;;;;;47.13;22.58;;;1.20;99.90;;;;;;6188198;23;20027;-80
2021/12/09 09:11:15;;;;;;;44.80;22.52;;;1.30;99.90;;;;;;6163453;23;20047;-80
2021/12/09 09:13:41;;;;;;;42.70;22.67;;;1.40;99.90;;;;;;6187980;23;20031;-80
2021/12/09 09:16:08;;;;;;;46.95;20.73;;;1.50;99.90;;;;;;6188282;23;20020;-80
2021/12/09 09:18:34;;;;;;;40.00;21.75;;;1.50;99.90;;;;;;6162682;23;20052;-81
2021/12/09 09:21:09;;;;;;;;;;;1.50;99.90;;;;;;6189232;23;20020;-80
2021/12/09 09:23:36;;;;;;;42.40;20.15;;;1.60;99.90;;;;;;6188577;23;19916;-81
2021/12/09 09:26:03;;;;;;;42.42;21.30;;;1.70;99.90;;;;;;6163208;23;20021;-81
2021/12/09 09:28:32;;;;;;;39.35;19.02;;;1.70;99.90;;;;;;6164417;23;20336;-81
2021/12/09 09:30:59;;;;;;;36.63;19.52;;;1.80;99.90;;;;;;6188909;23;20033;-81
2021/12/09 09:33:28;;;;;;;34.83;20.02;;;1.90;99.90;;;;;;6190832;23;20027;-81
2021/12/09 09:35:54;;;;;;;45.72;22.30;;;2.00;99.90;;;;;;6166982;23;20021;-81
2021/12/09 09:38:21;;;;;;;35.92;18.90;;;2.10;99.90;;;;;;6187843;23;20021;-81
2021/12/09 09:41:05;;;;;;;43.45;18.52;;;2.20;99.90;;;;;;6188333;23;20170;-81
2021/12/09 09:46:29;;;;;;;36.88;17.85;;;2.60;99.90;;;;;;6187951;23;20087;-82
2021/12/09 09:48:57;;;;;;;30.25;16.63;;;2.80;99.90;;;;;;6162698;23;20021;-81
2021/12/09 09:51:32;;;;;;;33.42;15.95;;;2.90;99.90;;;;;;6162774;23;20028;-82
2021/12/09 09:53:58;;;;;;;29.67;15.35;;;3.10;99.90;;;;;;6187675;23;20098;-82
2021/12/09 09:56:25;;;;;;;32.55;15.45;;;3.20;99.90;;;;;;6187628;23;20024;-81
2021/12/09 09:58:59;;;;;;;28.90;14.38;;;3.30;99.90;;;;;;6188111;23;20051;-82
2021/12/09 10:01:31;;;;;;;49.25;16.08;;;3.50;99.90;;;;;;6187548;23;20021;-82
2021/12/09 10:04:09;;;;;;;29.73;13.07;;;3.70;99.90;;;;;;6188594;23;20070;-82
2021/12/09 10:06:36;;;;;;;25.90;13.38;;;3.90;99.90;;;;;;6187543;23;20031;-82
2021/12/09 10:09:05;;;;;;;32.63;13.00;;;4.00;99.90;;;;;;6188003;23;20024;-82
2021/12/09 10:11:37;;;;;;;23.70;14.27;;;4.00;99.90;;;;;;6190911;23;20020;-83
2021/12/09 10:14:21;;;;;;;26.65;13.20;;;4.10;99.90;;;;;;6189529;23;20032;-82
2021/12/09 10:17:07;;;;;;;23.52;12.27;;;4.30;99.90;;;;;;6186780;23;20538;-81
2021/12/09 10:19:40;;;;;;;22.08;11.75;;;4.50;99.90;;;;;;6187458;23;20020;-81
2021/12/09 10:22:17;;;;;;;23.85;11.95;;;4.60;99.90;;;;;;6187949;23;20021;-82
2021/12/09 10:24:44;;;;;;;23.33;11.80;;;4.70;99.90;;;;;;6186359;23;20029;-82
2021/12/09 10:27:36;;;;;;;26.60;11.63;;;5.00;99.90;;;;;;6212181;23;20020;-82
2021/12/09 10:30:10;;;;;;;19.42;11.48;;;5.10;99.90;;;;;;6162641;23;20116;-82
2021/12/09 10:33:03;;;;;;;15.55;9.20;;;4.90;99.90;;;;;;6191982;23;20027;-82
2021/12/09 10:35:29;;;;;;;18.75;10.25;;;4.50;99.90;;;;;;6187541;23;20021;-82
2021/12/09 10:37:55;;;;;;;19.15;9.60;;;4.10;99.90;;;;;;6162007;23;20024;-82
2021/12/09 10:40:31;;;;;;;26.00;9.23;;;4.00;99.90;;;;;;6186607;23;20021;-82
2021/12/09 10:43:01;;;;;;;21.15;10.93;;;3.70;99.90;;;;;;6187302;23;20037;-83
2021/12/09 10:45:30;;;;;;;25.77;12.20;;;3.50;99.90;;;;;;6187576;23;20025;-83
2021/12/09 10:48:04;;;;;;;23.02;12.07;;;3.40;99.90;;;;;;6187925;23;20021;-83
2021/12/09 10:50:58;;;;;;;27.75;13.43;;;3.20;99.90;;;;;;6163216;23;20398;-83
2021/12/09 10:56:10;;;;;;;25.40;12.32;;;3.10;99.90;;;;;;6189276;23;20017;-82
2021/12/09 10:58:55;;;;;;;28.52;13.50;;;3.10;99.90;;;;;;6189755;23;20021;-82
2021/12/09 11:01:24;;;;;;;27.80;13.18;;;3.10;99.90;;;;;;6189357;23;20094;-83
2021/12/09 11:04:02;;;;;;;23.65;12.75;;;3.10;99.90;;;;;;6192235;23;20103;-83
2021/12/09 11:06:38;;;;;;;30.88;13.80;;;3.00;99.90;;;;;;6167474;23;20024;-82
2021/12/09 11:09:07;;;;;;;30.98;14.82;;;3.10;99.90;;;;;;6217366;23;20025;-82
2021/12/09 11:11:39;;;;;;;28.02;13.65;;;3.10;99.90;;;;;;6189142;23;20021;-82
2021/12/09 11:14:13;;;;;;;24.65;13.07;;;3.10;99.90;;;;;;6164132;23;20456;-83
2021/12/09 11:16:42;;;;;;;26.15;14.38;;;3.10;99.90;;;;;;6189009;23;20056;-82
2021/12/09 11:22:14;;;;;;;32.40;15.20;;;3.10;99.90;;;;;;6189623;23;20514;-82
2021/12/09 11:24:44;;;;;;;32.15;15.15;;;3.10;99.90;;;;;;6163767;23;20017;-83
2021/12/09 11:27:18;;;;;;;30.65;15.25;;;3.10;99.90;;;;;;6186189;23;20024;-83
2021/12/09 11:29:49;;;;;;;26.98;15.35;;;3.10;99.90;;;;;;6164488;23;20017;-82
2021/12/09 11:32:56;;;;;;;35.35;16.15;;;3.10;99.90;;;;;;6188574;23;20024;-82
2021/12/09 11:35:26;;;;;;;33.65;16.40;;;3.10;99.90;;;;;;6189630;23;20048;-84
2021/12/09 11:38:03;;;;;;;32.08;15.65;;;3.00;99.90;;;;;;6163867;23;20025;-84
2021/12/09 11:43:07;;;;;;;30.60;15.07;;;3.00;99.90;;;;;;6188899;23;20401;-83
2021/12/09 11:45:41;;;;;;;38.50;16.35;;;3.00;99.90;;;;;;6188757;23;20413;-81
2021/12/09 11:48:09;;;;;;;40.00;16.85;;;3.00;99.90;;;;;;6188662;23;20032;-83
2021/12/09 11:50:44;;;;;;;33.17;17.30;;;3.00;99.90;;;;;;6209971;23;20020;-82
2021/12/09 11:53:13;;;;;;;38.05;16.38;;;2.90;99.90;;;;;;6217403;23;20021;-82
2021/12/09 11:55:56;;;;;;;43.90;18.05;;;2.90;99.90;;;;;;6190879;23;20118;-83
2021/12/09 11:58:32;;;;;;;37.13;17.05;;;3.00;99.90;;;;;;6167934;23;20349;-85
2021/12/09 12:07:55;;;;;;;45.50;19.70;;;3.00;99.90;;;;;;6186752;23;20051;-84
2021/12/09 12:13:52;;;;;;;39.38;16.25;;;2.90;99.90;;;;;;6188815;23;20358;-82
2021/12/09 12:16:51;;;;;;;39.30;18.55;;;3.00;99.90;;;;;;6189296;23;20348;-83
2021/12/09 12:19:42;;;;;;;40.22;17.77;;;3.00;99.90;;;;;;6163532;23;20074;-83
2021/12/09 12:28:38;;;;;;;42.22;18.08;;;3.10;99.90;;;;;;6188368;23;20039;-83
2021/12/09 12:34:23;;;;;;;39.80;18.42;;;3.00;99.90;;;;;;6188491;23;20347;-83
2021/12/09 12:42:16;;;;;;;45.60;20.60;;;3.10;99.90;;;;;;6188629;23;20026;-83
2021/12/09 12:48:35;;;;;;;36.63;17.40;;;3.10;99.90;;;;;;6190438;23;20271;-84
2021/12/09 12:50:36;;;;;;;38.58;18.10;;;3.20;99.90;;;;;;6188929;23;20063;-85
2021/12/09 12:53:38;;;;;;;48.97;19.45;;;3.10;99.90;;;;;;6194092;23;20024;-83
2021/12/09 12:56:32;;;;;;;44.22;20.70;;;3.20;99.90;;;;;;6191909;23;20024;-83
2021/12/09 12:59:06;;;;;;;39.55;17.17;;;3.20;99.90;;;;;;6190217;23;20020;-84
2021/12/09 13:02:09;;;;;;;42.78;19.05;;;3.20;99.90;;;;;;6188678;23;20025;-83
2021/12/09 13:04:56;;;;;;;42.28;18.33;;;3.30;99.90;;;;;;6189331;23;20028;-83
2021/12/09 13:13:40;;;;;;;40.00;18.83;;;3.30;99.90;;;;;;6093712;23;20030;-84
2021/12/09 13:19:21;;;;;;;38.58;17.65;;;3.30;99.90;;;;;;6092655;23;20023;-84
2021/12/09 13:22:02;;;;;;;42.38;19.23;;;3.30;99.90;;;;;;6069185;23;20030;-84
2021/12/09 13:24:59;;;;;;;40.92;19.55;;;3.30;99.90;;;;;;6092944;23;20069;-84
2021/12/09 13:30:18;;;;;;;44.05;20.85;;;3.40;99.90;;;;;;6069471;23;20026;-84
2021/12/09 13:47:22;;;;;;;46.45;20.15;;;3.50;99.90;;;;;;6157200;23;20021;-84
2021/12/09 13:50:00;;;;;;;46.90;21.00;;;3.50;99.90;;;;;;6110628;23;20460;-84
2021/12/09 13:55:22;;;;;;;43.03;20.33;;;3.50;99.90;;;;;;6162569;23;20053;-84
2021/12/09 13:57:49;;;;;;;42.17;18.88;;;3.50;99.90;;;;;;6182195;23;20131;-83
2021/12/09 14:00:33;;;;;;;46.28;20.25;;;3.50;99.90;;;;;;6132533;23;20412;-82
2021/12/09 14:03:10;;;;;;;47.50;21.60;;;3.50;99.90;;;;;;6132774;23;20028;-83
2021/12/09 14:06:15;;;;;;;46.10;20.20;;;3.50;99.90;;;;;;6133229;23;20024;-83